sensor_id;sensor_type;location;lat;lon;timestamp;P1;durP1;ratioP1;P2;durP2;ratioP2
38085;SDS011;23896;50.678;10.924;2023-08-20T00:01:04;6.40;;;5.80;;
38085;SDS011;23896;50.678;10.924;2023-08-20T00:03:30;9.40;;;5.88;;
38085;SDS011;23896;50.678;10.924;2023-08-20T00:05:56;10.65;;;6.18;;
38085;SDS011;23896;50.678;10.924;2023-08-20T00:08:23;7.47;;;5.60;;
38085;SDS011;23896;50.678;10.924;2023-08-20T00:10:49;16.40;;;7.13;;
38085;SDS011;23896;50.678;10.924;2023-08-20T00:13:15;9.90;;;6.05;;
38085;SDS011;23896;50.678;10.924;2023-08-20T00:15:41;10.35;;;6.38;;
38085;SDS011;23896;50.678;10.924;2023-08-20T00:18:08;9.00;;;5.97;;
38085;SDS011;23896;50.678;10.924;2023-08-20T00:20:39;6.50;;;5.68;;
38085;SDS011;23896;50.678;10.924;2023-08-20T00:23:05;9.68;;;5.72;;
38085;SDS011;23896;50.678;10.924;2023-08-20T00:25:32;11.38;;;7.00;;
38085;SDS011;23896;50.678;10.924;2023-08-20T00:27:59;8.18;;;5.93;;
38085;SDS011;23896;50.678;10.924;2023-08-20T00:30:25;11.48;;;6.53;;
38085;SDS011;23896;50.678;10.924;2023-08-20T00:32:51;8.63;;;5.93;;
38085;SDS011;23896;50.678;10.924;2023-08-20T00:35:17;11.63;;;7.00;;
38085;SDS011;23896;50.678;10.924;2023-08-20T00:37:44;7.32;;;6.18;;
38085;SDS011;23896;50.678;10.924;2023-08-20T00:40:10;8.35;;;6.50;;
38085;SDS011;23896;50.678;10.924;2023-08-20T00:42:36;10.35;;;6.07;;
38085;SDS011;23896;50.678;10.924;2023-08-20T00:45:03;7.47;;;5.97;;
38085;SDS011;23896;50.678;10.924;2023-08-20T00:47:30;6.65;;;6.03;;
38085;SDS011;23896;50.678;10.924;2023-08-20T00:49:56;8.80;;;5.85;;
38085;SDS011;23896;50.678;10.924;2023-08-20T00:52:22;7.47;;;6.63;;
38085;SDS011;23896;50.678;10.924;2023-08-20T00:54:49;7.50;;;6.47;;
38085;SDS011;23896;50.678;10.924;2023-08-20T00:57:18;10.52;;;5.78;;
38085;SDS011;23896;50.678;10.924;2023-08-20T00:59:44;6.78;;;6.07;;
38085;SDS011;23896;50.678;10.924;2023-08-20T01:02:12;8.27;;;6.13;;
38085;SDS011;23896;50.678;10.924;2023-08-20T01:04:38;8.18;;;6.60;;
38085;SDS011;23896;50.678;10.924;2023-08-20T01:07:11;5.80;;;5.30;;
38085;SDS011;23896;50.678;10.924;2023-08-20T01:09:43;7.05;;;6.22;;
38085;SDS011;23896;50.678;10.924;2023-08-20T01:12:14;7.90;;;5.63;;
38085;SDS011;23896;50.678;10.924;2023-08-20T01:14:42;8.32;;;7.00;;
38085;SDS011;23896;50.678;10.924;2023-08-20T01:17:08;8.05;;;6.55;;
38085;SDS011;23896;50.678;10.924;2023-08-20T01:19:34;6.97;;;6.28;;
38085;SDS011;23896;50.678;10.924;2023-08-20T01:22:05;12.55;;;6.40;;
38085;SDS011;23896;50.678;10.924;2023-08-20T01:24:44;6.20;;;5.70;;
38085;SDS011;23896;50.678;10.924;2023-08-20T01:27:20;7.30;;;6.40;;
38085;SDS011;23896;50.678;10.924;2023-08-20T01:29:52;7.18;;;6.25;;
38085;SDS011;23896;50.678;10.924;2023-08-20T01:32:18;7.70;;;5.97;;
38085;SDS011;23896;50.678;10.924;2023-08-20T01:34:46;8.30;;;5.75;;
38085;SDS011;23896;50.678;10.924;2023-08-20T01:37:13;10.93;;;6.22;;
38085;SDS011;23896;50.678;10.924;2023-08-20T01:39:39;9.27;;;6.20;;
38085;SDS011;23896;50.678;10.924;2023-08-20T01:42:07;8.18;;;6.13;;
38085;SDS011;23896;50.678;10.924;2023-08-20T01:44:33;8.77;;;6.55;;
38085;SDS011;23896;50.678;10.924;2023-08-20T01:46:59;7.25;;;6.55;;
38085;SDS011;23896;50.678;10.924;2023-08-20T01:49:25;8.38;;;6.53;;
38085;SDS011;23896;50.678;10.924;2023-08-20T01:51:51;7.43;;;6.28;;
38085;SDS011;23896;50.678;10.924;2023-08-20T01:54:20;7.65;;;6.95;;
38085;SDS011;23896;50.678;10.924;2023-08-20T01:56:46;8.68;;;6.43;;
38085;SDS011;23896;50.678;10.924;2023-08-20T01:59:13;8.23;;;6.80;;
38085;SDS011;23896;50.678;10.924;2023-08-20T02:01:39;9.82;;;6.57;;
38085;SDS011;23896;50.678;10.924;2023-08-20T02:04:05;8.55;;;6.75;;
38085;SDS011;23896;50.678;10.924;2023-08-20T02:06:34;6.18;;;5.28;;
38085;SDS011;23896;50.678;10.924;2023-08-20T02:09:00;6.97;;;5.55;;
38085;SDS011;23896;50.678;10.924;2023-08-20T02:11:31;6.05;;;5.22;;
38085;SDS011;23896;50.678;10.924;2023-08-20T02:14:01;9.02;;;5.40;;
38085;SDS011;23896;50.678;10.924;2023-08-20T02:16:27;13.45;;;5.85;;
38085;SDS011;23896;50.678;10.924;2023-08-20T02:18:53;6.82;;;5.43;;
38085;SDS011;23896;50.678;10.924;2023-08-20T02:21:23;7.00;;;4.80;;
38085;SDS011;23896;50.678;10.924;2023-08-20T02:23:49;7.13;;;5.07;;
38085;SDS011;23896;50.678;10.924;2023-08-20T02:26:15;9.48;;;4.72;;
38085;SDS011;23896;50.678;10.924;2023-08-20T02:28:41;5.65;;;4.45;;
38085;SDS011;23896;50.678;10.924;2023-08-20T02:31:08;7.03;;;4.30;;
38085;SDS011;23896;50.678;10.924;2023-08-20T02:33:34;7.15;;;4.80;;
38085;SDS011;23896;50.678;10.924;2023-08-20T02:36:00;6.00;;;4.28;;
38085;SDS011;23896;50.678;10.924;2023-08-20T02:38:30;5.90;;;4.43;;
38085;SDS011;23896;50.678;10.924;2023-08-20T02:40:57;6.68;;;4.00;;
38085;SDS011;23896;50.678;10.924;2023-08-20T02:43:23;9.07;;;4.60;;
38085;SDS011;23896;50.678;10.924;2023-08-20T02:45:49;8.27;;;4.18;;
38085;SDS011;23896;50.678;10.924;2023-08-20T02:48:16;4.68;;;4.13;;
38085;SDS011;23896;50.678;10.924;2023-08-20T02:50:44;7.53;;;4.03;;
38085;SDS011;23896;50.678;10.924;2023-08-20T02:53:10;8.48;;;4.65;;
38085;SDS011;23896;50.678;10.924;2023-08-20T02:55:36;5.47;;;3.75;;
38085;SDS011;23896;50.678;10.924;2023-08-20T02:58:02;5.68;;;4.68;;
38085;SDS011;23896;50.678;10.924;2023-08-20T03:00:29;6.68;;;4.78;;
38085;SDS011;23896;50.678;10.924;2023-08-20T03:02:56;7.28;;;4.07;;
38085;SDS011;23896;50.678;10.924;2023-08-20T03:05:23;5.63;;;4.32;;
38085;SDS011;23896;50.678;10.924;2023-08-20T03:07:49;5.53;;;4.55;;
38085;SDS011;23896;50.678;10.924;2023-08-20T03:10:15;8.57;;;4.75;;
38085;SDS011;23896;50.678;10.924;2023-08-20T03:12:41;6.68;;;5.07;;
38085;SDS011;23896;50.678;10.924;2023-08-20T03:15:07;6.55;;;4.60;;
38085;SDS011;23896;50.678;10.924;2023-08-20T03:17:36;10.15;;;5.47;;
38085;SDS011;23896;50.678;10.924;2023-08-20T03:20:03;5.18;;;4.55;;
38085;SDS011;23896;50.678;10.924;2023-08-20T03:22:31;5.85;;;4.65;;
38085;SDS011;23896;50.678;10.924;2023-08-20T03:24:57;9.38;;;5.07;;
38085;SDS011;23896;50.678;10.924;2023-08-20T03:27:23;5.55;;;5.05;;
38085;SDS011;23896;50.678;10.924;2023-08-20T03:29:51;6.28;;;4.63;;
38085;SDS011;23896;50.678;10.924;2023-08-20T03:32:18;6.57;;;4.72;;
38085;SDS011;23896;50.678;10.924;2023-08-20T03:34:44;6.88;;;4.57;;
38085;SDS011;23896;50.678;10.924;2023-08-20T03:37:10;5.15;;;4.65;;
38085;SDS011;23896;50.678;10.924;2023-08-20T03:39:36;6.32;;;4.47;;
38085;SDS011;23896;50.678;10.924;2023-08-20T03:42:02;5.03;;;4.50;;
38085;SDS011;23896;50.678;10.924;2023-08-20T03:44:32;8.05;;;6.63;;
38085;SDS011;23896;50.678;10.924;2023-08-20T03:46:58;7.63;;;4.63;;
38085;SDS011;23896;50.678;10.924;2023-08-20T03:49:24;12.63;;;11.32;;
38085;SDS011;23896;50.678;10.924;2023-08-20T03:51:50;16.45;;;10.55;;
38085;SDS011;23896;50.678;10.924;2023-08-20T03:54:16;7.75;;;6.03;;
38085;SDS011;23896;50.678;10.924;2023-08-20T03:56:42;6.78;;;6.22;;
38085;SDS011;23896;50.678;10.924;2023-08-20T03:59:09;8.10;;;6.53;;
38085;SDS011;23896;50.678;10.924;2023-08-20T04:01:38;9.30;;;5.90;;
38085;SDS011;23896;50.678;10.924;2023-08-20T04:04:04;5.65;;;5.25;;
38085;SDS011;23896;50.678;10.924;2023-08-20T04:06:30;6.90;;;5.40;;
38085;SDS011;23896;50.678;10.924;2023-08-20T04:08:58;9.10;;;5.00;;
38085;SDS011;23896;50.678;10.924;2023-08-20T04:11:24;9.13;;;6.65;;
38085;SDS011;23896;50.678;10.924;2023-08-20T04:13:50;6.78;;;5.35;;
38085;SDS011;23896;50.678;10.924;2023-08-20T04:16:16;8.90;;;5.30;;
38085;SDS011;23896;50.678;10.924;2023-08-20T04:18:43;11.00;;;5.53;;
38085;SDS011;23896;50.678;10.924;2023-08-20T04:21:12;5.70;;;5.18;;
38085;SDS011;23896;50.678;10.924;2023-08-20T04:23:38;8.52;;;5.47;;
38085;SDS011;23896;50.678;10.924;2023-08-20T04:26:04;11.50;;;4.95;;
38085;SDS011;23896;50.678;10.924;2023-08-20T04:28:34;6.60;;;5.70;;
38085;SDS011;23896;50.678;10.924;2023-08-20T04:31:00;5.57;;;5.10;;
38085;SDS011;23896;50.678;10.924;2023-08-20T04:33:29;10.02;;;5.68;;
38085;SDS011;23896;50.678;10.924;2023-08-20T04:35:55;5.75;;;5.20;;
38085;SDS011;23896;50.678;10.924;2023-08-20T04:38:22;8.30;;;6.05;;
38085;SDS011;23896;50.678;10.924;2023-08-20T04:40:48;6.70;;;5.47;;
38085;SDS011;23896;50.678;10.924;2023-08-20T04:43:14;7.88;;;6.15;;
38085;SDS011;23896;50.678;10.924;2023-08-20T04:45:41;6.43;;;5.82;;
38085;SDS011;23896;50.678;10.924;2023-08-20T04:48:07;7.03;;;6.13;;
38085;SDS011;23896;50.678;10.924;2023-08-20T04:50:33;6.65;;;5.57;;
38085;SDS011;23896;50.678;10.924;2023-08-20T04:53:00;5.78;;;5.28;;
38085;SDS011;23896;50.678;10.924;2023-08-20T04:55:27;6.85;;;6.18;;
38085;SDS011;23896;50.678;10.924;2023-08-20T04:57:53;7.95;;;5.63;;
38085;SDS011;23896;50.678;10.924;2023-08-20T05:00:19;7.57;;;6.15;;
38085;SDS011;23896;50.678;10.924;2023-08-20T05:02:46;7.60;;;4.88;;
38085;SDS011;23896;50.678;10.924;2023-08-20T05:05:15;6.50;;;5.85;;
38085;SDS011;23896;50.678;10.924;2023-08-20T05:07:41;6.07;;;5.22;;
38085;SDS011;23896;50.678;10.924;2023-08-20T05:10:08;5.30;;;4.80;;
38085;SDS011;23896;50.678;10.924;2023-08-20T05:12:35;5.70;;;5.18;;
38085;SDS011;23896;50.678;10.924;2023-08-20T05:15:01;7.57;;;6.15;;
38085;SDS011;23896;50.678;10.924;2023-08-20T05:17:27;9.68;;;5.55;;
38085;SDS011;23896;50.678;10.924;2023-08-20T05:19:53;7.05;;;6.00;;
38085;SDS011;23896;50.678;10.924;2023-08-20T05:22:20;8.20;;;5.97;;
38085;SDS011;23896;50.678;10.924;2023-08-20T05:24:46;6.00;;;5.20;;
38085;SDS011;23896;50.678;10.924;2023-08-20T05:27:15;6.68;;;5.20;;
38085;SDS011;23896;50.678;10.924;2023-08-20T05:29:42;9.60;;;5.63;;
38085;SDS011;23896;50.678;10.924;2023-08-20T05:32:08;9.73;;;5.32;;
38085;SDS011;23896;50.678;10.924;2023-08-20T05:34:34;5.93;;;5.15;;
38085;SDS011;23896;50.678;10.924;2023-08-20T05:37:01;6.38;;;5.78;;
38085;SDS011;23896;50.678;10.924;2023-08-20T05:39:29;6.88;;;6.25;;
38085;SDS011;23896;50.678;10.924;2023-08-20T05:41:55;11.77;;;8.13;;
38085;SDS011;23896;50.678;10.924;2023-08-20T05:44:24;8.32;;;6.43;;
38085;SDS011;23896;50.678;10.924;2023-08-20T05:46:50;5.70;;;5.10;;
38085;SDS011;23896;50.678;10.924;2023-08-20T05:49:20;6.28;;;5.22;;
38085;SDS011;23896;50.678;10.924;2023-08-20T05:51:46;6.38;;;5.47;;
38085;SDS011;23896;50.678;10.924;2023-08-20T05:54:12;6.85;;;5.40;;
38085;SDS011;23896;50.678;10.924;2023-08-20T05:56:44;8.23;;;5.32;;
38085;SDS011;23896;50.678;10.924;2023-08-20T05:59:10;6.32;;;5.63;;
38085;SDS011;23896;50.678;10.924;2023-08-20T06:01:36;6.60;;;5.13;;
38085;SDS011;23896;50.678;10.924;2023-08-20T06:04:03;10.10;;;5.72;;
38085;SDS011;23896;50.678;10.924;2023-08-20T06:06:29;9.13;;;6.72;;
38085;SDS011;23896;50.678;10.924;2023-08-20T06:08:55;18.85;;;13.32;;
38085;SDS011;23896;50.678;10.924;2023-08-20T06:11:22;14.65;;;12.98;;
38085;SDS011;23896;50.678;10.924;2023-08-20T06:13:48;7.85;;;6.88;;
38085;SDS011;23896;50.678;10.924;2023-08-20T06:16:14;8.57;;;5.93;;
38085;SDS011;23896;50.678;10.924;2023-08-20T06:18:41;6.80;;;5.07;;
38085;SDS011;23896;50.678;10.924;2023-08-20T06:21:07;7.57;;;5.78;;
38085;SDS011;23896;50.678;10.924;2023-08-20T06:23:33;7.43;;;5.68;;
38085;SDS011;23896;50.678;10.924;2023-08-20T06:25:59;6.03;;;5.38;;
38085;SDS011;23896;50.678;10.924;2023-08-20T06:28:26;5.90;;;5.38;;
38085;SDS011;23896;50.678;10.924;2023-08-20T06:30:55;7.60;;;6.15;;
38085;SDS011;23896;50.678;10.924;2023-08-20T06:33:22;7.75;;;5.70;;
38085;SDS011;23896;50.678;10.924;2023-08-20T06:35:48;6.28;;;5.78;;
38085;SDS011;23896;50.678;10.924;2023-08-20T06:38:14;7.18;;;6.13;;
38085;SDS011;23896;50.678;10.924;2023-08-20T06:40:40;7.30;;;5.90;;
38085;SDS011;23896;50.678;10.924;2023-08-20T06:43:06;10.05;;;6.00;;
38085;SDS011;23896;50.678;10.924;2023-08-20T06:45:32;7.70;;;5.68;;
38085;SDS011;23896;50.678;10.924;2023-08-20T06:47:59;9.18;;;6.45;;
38085;SDS011;23896;50.678;10.924;2023-08-20T06:50:25;7.45;;;6.32;;
38085;SDS011;23896;50.678;10.924;2023-08-20T06:52:57;7.53;;;6.60;;
38085;SDS011;23896;50.678;10.924;2023-08-20T06:55:23;6.93;;;6.05;;
38085;SDS011;23896;50.678;10.924;2023-08-20T06:57:50;6.32;;;5.82;;
38085;SDS011;23896;50.678;10.924;2023-08-20T07:00:17;7.65;;;6.75;;
38085;SDS011;23896;50.678;10.924;2023-08-20T07:02:44;8.40;;;7.15;;
38085;SDS011;23896;50.678;10.924;2023-08-20T07:05:10;8.90;;;7.25;;
38085;SDS011;23896;50.678;10.924;2023-08-20T07:07:36;9.27;;;7.40;;
38085;SDS011;23896;50.678;10.924;2023-08-20T07:10:03;8.13;;;7.20;;
38085;SDS011;23896;50.678;10.924;2023-08-20T07:12:29;10.35;;;7.47;;
38085;SDS011;23896;50.678;10.924;2023-08-20T07:14:55;10.60;;;7.90;;
38085;SDS011;23896;50.678;10.924;2023-08-20T07:17:23;14.07;;;8.77;;
38085;SDS011;23896;50.678;10.924;2023-08-20T07:19:59;12.35;;;8.90;;
38085;SDS011;23896;50.678;10.924;2023-08-20T07:22:28;9.90;;;8.05;;
38085;SDS011;23896;50.678;10.924;2023-08-20T07:24:58;68.85;;;46.53;;
38085;SDS011;23896;50.678;10.924;2023-08-20T07:27:24;26.33;;;19.55;;
38085;SDS011;23896;50.678;10.924;2023-08-20T07:29:51;16.60;;;14.05;;
38085;SDS011;23896;50.678;10.924;2023-08-20T07:32:17;13.52;;;12.10;;
38085;SDS011;23896;50.678;10.924;2023-08-20T07:34:43;11.52;;;10.15;;
38085;SDS011;23896;50.678;10.924;2023-08-20T07:37:10;12.20;;;10.90;;
38085;SDS011;23896;50.678;10.924;2023-08-20T07:39:36;15.02;;;13.45;;
38085;SDS011;23896;50.678;10.924;2023-08-20T07:42:02;14.90;;;11.23;;
38085;SDS011;23896;50.678;10.924;2023-08-20T07:44:29;20.35;;;15.73;;
38085;SDS011;23896;50.678;10.924;2023-08-20T07:46:55;15.80;;;12.68;;
38085;SDS011;23896;50.678;10.924;2023-08-20T07:49:24;12.90;;;10.60;;
38085;SDS011;23896;50.678;10.924;2023-08-20T07:51:51;12.57;;;10.77;;
38085;SDS011;23896;50.678;10.924;2023-08-20T07:54:20;16.90;;;11.73;;
38085;SDS011;23896;50.678;10.924;2023-08-20T07:56:47;11.23;;;10.13;;
38085;SDS011;23896;50.678;10.924;2023-08-20T07:59:16;13.30;;;10.98;;
38085;SDS011;23896;50.678;10.924;2023-08-20T08:01:43;12.38;;;11.18;;
38085;SDS011;23896;50.678;10.924;2023-08-20T08:04:09;14.10;;;11.52;;
38085;SDS011;23896;50.678;10.924;2023-08-20T08:06:35;16.42;;;14.00;;
38085;SDS011;23896;50.678;10.924;2023-08-20T08:11:39;17.02;;;14.88;;
38085;SDS011;23896;50.678;10.924;2023-08-20T08:14:05;14.88;;;13.20;;
38085;SDS011;23896;50.678;10.924;2023-08-20T08:16:32;14.98;;;13.38;;
38085;SDS011;23896;50.678;10.924;2023-08-20T08:19:05;16.15;;;14.30;;
38085;SDS011;23896;50.678;10.924;2023-08-20T08:21:34;16.48;;;13.48;;
38085;SDS011;23896;50.678;10.924;2023-08-20T08:24:00;17.27;;;14.18;;
38085;SDS011;23896;50.678;10.924;2023-08-20T08:26:27;19.73;;;17.42;;
38085;SDS011;23896;50.678;10.924;2023-08-20T08:28:56;16.63;;;13.82;;
38085;SDS011;23896;50.678;10.924;2023-08-20T08:31:23;16.83;;;15.20;;
38085;SDS011;23896;50.678;10.924;2023-08-20T08:33:49;15.00;;;13.55;;
38085;SDS011;23896;50.678;10.924;2023-08-20T08:36:15;14.82;;;13.25;;
38085;SDS011;23896;50.678;10.924;2023-08-20T08:38:42;17.35;;;15.60;;
38085;SDS011;23896;50.678;10.924;2023-08-20T08:41:12;16.75;;;14.15;;
38085;SDS011;23896;50.678;10.924;2023-08-20T08:43:39;14.68;;;13.23;;
38085;SDS011;23896;50.678;10.924;2023-08-20T08:46:06;14.57;;;13.13;;
38085;SDS011;23896;50.678;10.924;2023-08-20T08:48:35;15.45;;;13.13;;
38085;SDS011;23896;50.678;10.924;2023-08-20T08:51:02;16.05;;;13.40;;
38085;SDS011;23896;50.678;10.924;2023-08-20T08:53:28;16.10;;;14.68;;
38085;SDS011;23896;50.678;10.924;2023-08-20T08:55:56;18.00;;;16.15;;
38085;SDS011;23896;50.678;10.924;2023-08-20T08:58:23;18.45;;;16.25;;
38085;SDS011;23896;50.678;10.924;2023-08-20T09:00:49;19.20;;;15.77;;
38085;SDS011;23896;50.678;10.924;2023-08-20T09:03:15;17.83;;;15.85;;
38085;SDS011;23896;50.678;10.924;2023-08-20T09:05:45;16.20;;;14.60;;
38085;SDS011;23896;50.678;10.924;2023-08-20T09:08:18;15.98;;;14.40;;
38085;SDS011;23896;50.678;10.924;2023-08-20T09:10:44;16.92;;;15.00;;
38085;SDS011;23896;50.678;10.924;2023-08-20T09:13:11;18.02;;;14.20;;
38085;SDS011;23896;50.678;10.924;2023-08-20T09:15:37;16.35;;;14.40;;
38085;SDS011;23896;50.678;10.924;2023-08-20T09:18:03;17.33;;;15.55;;
38085;SDS011;23896;50.678;10.924;2023-08-20T09:20:34;16.92;;;15.23;;
38085;SDS011;23896;50.678;10.924;2023-08-20T09:23:01;16.48;;;14.63;;
38085;SDS011;23896;50.678;10.924;2023-08-20T09:25:27;16.38;;;14.23;;
38085;SDS011;23896;50.678;10.924;2023-08-20T09:27:53;17.50;;;14.50;;
38085;SDS011;23896;50.678;10.924;2023-08-20T09:30:19;17.38;;;15.75;;
38085;SDS011;23896;50.678;10.924;2023-08-20T09:33:02;23.23;;;17.92;;
38085;SDS011;23896;50.678;10.924;2023-08-20T09:35:28;18.40;;;16.60;;
38085;SDS011;23896;50.678;10.924;2023-08-20T09:37:59;16.63;;;14.90;;
38085;SDS011;23896;50.678;10.924;2023-08-20T09:40:27;17.83;;;15.93;;
38085;SDS011;23896;50.678;10.924;2023-08-20T09:42:54;18.38;;;16.33;;
38085;SDS011;23896;50.678;10.924;2023-08-20T09:45:20;20.38;;;18.05;;
38085;SDS011;23896;50.678;10.924;2023-08-20T09:47:48;22.80;;;17.60;;
38085;SDS011;23896;50.678;10.924;2023-08-20T09:50:16;22.35;;;18.00;;
38085;SDS011;23896;50.678;10.924;2023-08-20T09:52:47;17.98;;;16.33;;
38085;SDS011;23896;50.678;10.924;2023-08-20T09:55:16;18.58;;;16.60;;
38085;SDS011;23896;50.678;10.924;2023-08-20T09:57:43;17.15;;;14.90;;
38085;SDS011;23896;50.678;10.924;2023-08-20T10:00:09;17.58;;;15.82;;
38085;SDS011;23896;50.678;10.924;2023-08-20T10:02:36;16.33;;;14.75;;
38085;SDS011;23896;50.678;10.924;2023-08-20T10:05:03;16.20;;;14.60;;
38085;SDS011;23896;50.678;10.924;2023-08-20T10:07:31;18.45;;;14.30;;
38085;SDS011;23896;50.678;10.924;2023-08-20T10:09:58;19.20;;;15.93;;
38085;SDS011;23896;50.678;10.924;2023-08-20T10:12:26;18.70;;;14.43;;
38085;SDS011;23896;50.678;10.924;2023-08-20T10:14:53;15.20;;;13.77;;
38085;SDS011;23896;50.678;10.924;2023-08-20T10:17:19;17.67;;;15.20;;
38085;SDS011;23896;50.678;10.924;2023-08-20T10:19:48;17.15;;;14.23;;
38085;SDS011;23896;50.678;10.924;2023-08-20T10:22:14;16.48;;;14.63;;
38085;SDS011;23896;50.678;10.924;2023-08-20T10:24:41;18.00;;;14.80;;
38085;SDS011;23896;50.678;10.924;2023-08-20T10:27:12;16.10;;;14.55;;
38085;SDS011;23896;50.678;10.924;2023-08-20T10:29:39;19.83;;;17.60;;
38085;SDS011;23896;50.678;10.924;2023-08-20T10:32:08;19.58;;;17.33;;
38085;SDS011;23896;50.678;10.924;2023-08-20T10:34:35;17.20;;;15.43;;
38085;SDS011;23896;50.678;10.924;2023-08-20T10:37:08;17.55;;;15.02;;
38085;SDS011;23896;50.678;10.924;2023-08-20T10:39:35;17.88;;;16.08;;
38085;SDS011;23896;50.678;10.924;2023-08-20T10:42:22;17.45;;;15.25;;
38085;SDS011;23896;50.678;10.924;2023-08-20T10:45:06;16.30;;;14.65;;
38085;SDS011;23896;50.678;10.924;2023-08-20T10:47:43;15.25;;;13.65;;
38085;SDS011;23896;50.678;10.924;2023-08-20T10:50:10;16.77;;;14.85;;
38085;SDS011;23896;50.678;10.924;2023-08-20T10:52:39;19.00;;;14.55;;
38085;SDS011;23896;50.678;10.924;2023-08-20T10:55:07;15.63;;;14.13;;
38085;SDS011;23896;50.678;10.924;2023-08-20T10:57:37;20.67;;;14.02;;
38085;SDS011;23896;50.678;10.924;2023-08-20T11:00:04;15.90;;;14.15;;
38085;SDS011;23896;50.678;10.924;2023-08-20T11:02:38;15.55;;;13.90;;
38085;SDS011;23896;50.678;10.924;2023-08-20T11:05:15;17.13;;;15.38;;
38085;SDS011;23896;50.678;10.924;2023-08-20T11:07:41;15.63;;;14.10;;
38085;SDS011;23896;50.678;10.924;2023-08-20T11:10:08;19.67;;;16.20;;
38085;SDS011;23896;50.678;10.924;2023-08-20T11:12:36;15.02;;;13.43;;
38085;SDS011;23896;50.678;10.924;2023-08-20T11:15:03;14.88;;;13.38;;
38085;SDS011;23896;50.678;10.924;2023-08-20T11:17:29;15.07;;;13.57;;
38085;SDS011;23896;50.678;10.924;2023-08-20T11:19:56;18.33;;;14.73;;
38085;SDS011;23896;50.678;10.924;2023-08-20T11:22:22;20.05;;;14.60;;
38085;SDS011;23896;50.678;10.924;2023-08-20T11:24:48;15.93;;;13.50;;
38085;SDS011;23896;50.678;10.924;2023-08-20T11:27:14;16.10;;;13.77;;
38085;SDS011;23896;50.678;10.924;2023-08-20T11:29:42;18.15;;;14.73;;
38085;SDS011;23896;50.678;10.924;2023-08-20T11:32:09;15.80;;;14.20;;
38085;SDS011;23896;50.678;10.924;2023-08-20T11:34:36;15.95;;;14.35;;
38085;SDS011;23896;50.678;10.924;2023-08-20T11:37:04;15.75;;;13.20;;
38085;SDS011;23896;50.678;10.924;2023-08-20T11:39:30;15.57;;;13.95;;
38085;SDS011;23896;50.678;10.924;2023-08-20T11:41:58;17.33;;;13.55;;
38085;SDS011;23896;50.678;10.924;2023-08-20T11:44:25;16.02;;;14.05;;
38085;SDS011;23896;50.678;10.924;2023-08-20T11:46:51;14.45;;;13.05;;
38085;SDS011;23896;50.678;10.924;2023-08-20T11:49:26;14.75;;;13.20;;
38085;SDS011;23896;50.678;10.924;2023-08-20T11:51:55;15.60;;;13.20;;
38085;SDS011;23896;50.678;10.924;2023-08-20T11:54:25;14.27;;;12.82;;
38085;SDS011;23896;50.678;10.924;2023-08-20T11:56:51;13.80;;;12.52;;
38085;SDS011;23896;50.678;10.924;2023-08-20T11:59:19;14.25;;;12.40;;
38085;SDS011;23896;50.678;10.924;2023-08-20T12:01:50;17.85;;;14.05;;
38085;SDS011;23896;50.678;10.924;2023-08-20T12:04:16;14.40;;;13.10;;
38085;SDS011;23896;50.678;10.924;2023-08-20T12:06:42;15.27;;;12.30;;
38085;SDS011;23896;50.678;10.924;2023-08-20T12:09:18;16.15;;;13.57;;
38085;SDS011;23896;50.678;10.924;2023-08-20T12:11:49;15.57;;;14.00;;
38085;SDS011;23896;50.678;10.924;2023-08-20T12:14:16;15.10;;;13.57;;
38085;SDS011;23896;50.678;10.924;2023-08-20T12:16:43;20.48;;;13.68;;
38085;SDS011;23896;50.678;10.924;2023-08-20T12:19:09;17.42;;;13.77;;
38085;SDS011;23896;50.678;10.924;2023-08-20T12:21:41;17.00;;;15.10;;
38085;SDS011;23896;50.678;10.924;2023-08-20T12:26:35;15.70;;;14.15;;
38085;SDS011;23896;50.678;10.924;2023-08-20T12:29:01;17.20;;;13.80;;
38085;SDS011;23896;50.678;10.924;2023-08-20T12:31:27;16.60;;;14.60;;
38085;SDS011;23896;50.678;10.924;2023-08-20T12:33:54;14.65;;;13.13;;
38085;SDS011;23896;50.678;10.924;2023-08-20T12:36:20;16.65;;;14.90;;
38085;SDS011;23896;50.678;10.924;2023-08-20T12:38:46;19.38;;;16.75;;
38085;SDS011;23896;50.678;10.924;2023-08-20T12:41:12;20.63;;;18.65;;
38085;SDS011;23896;50.678;10.924;2023-08-20T12:43:38;18.92;;;15.02;;
38085;SDS011;23896;50.678;10.924;2023-08-20T12:46:04;18.05;;;14.02;;
38085;SDS011;23896;50.678;10.924;2023-08-20T12:48:30;15.27;;;13.77;;
38085;SDS011;23896;50.678;10.924;2023-08-20T12:50:57;14.55;;;13.00;;
38085;SDS011;23896;50.678;10.924;2023-08-20T12:53:24;14.93;;;13.52;;
38085;SDS011;23896;50.678;10.924;2023-08-20T12:55:50;17.10;;;15.40;;
38085;SDS011;23896;50.678;10.924;2023-08-20T12:58:16;18.10;;;15.10;;
38085;SDS011;23896;50.678;10.924;2023-08-20T13:00:42;15.30;;;12.95;;
38085;SDS011;23896;50.678;10.924;2023-08-20T13:03:08;14.00;;;12.60;;
38085;SDS011;23896;50.678;10.924;2023-08-20T13:05:35;14.57;;;13.23;;
38085;SDS011;23896;50.678;10.924;2023-08-20T13:08:01;14.82;;;13.30;;
38085;SDS011;23896;50.678;10.924;2023-08-20T13:10:27;16.52;;;13.50;;
38085;SDS011;23896;50.678;10.924;2023-08-20T13:12:59;13.85;;;12.57;;
38085;SDS011;23896;50.678;10.924;2023-08-20T13:15:25;14.82;;;13.30;;
38085;SDS011;23896;50.678;10.924;2023-08-20T13:17:52;15.90;;;14.27;;
38085;SDS011;23896;50.678;10.924;2023-08-20T13:20:18;26.15;;;20.55;;
38085;SDS011;23896;50.678;10.924;2023-08-20T13:22:49;16.08;;;14.38;;
38085;SDS011;23896;50.678;10.924;2023-08-20T13:25:16;15.32;;;13.82;;
38085;SDS011;23896;50.678;10.924;2023-08-20T13:27:42;17.38;;;14.15;;
38085;SDS011;23896;50.678;10.924;2023-08-20T13:30:08;16.70;;;15.10;;
38085;SDS011;23896;50.678;10.924;2023-08-20T13:32:35;15.85;;;14.30;;
38085;SDS011;23896;50.678;10.924;2023-08-20T13:35:01;13.55;;;12.25;;
38085;SDS011;23896;50.678;10.924;2023-08-20T13:37:29;15.18;;;13.48;;
38085;SDS011;23896;50.678;10.924;2023-08-20T13:39:57;14.95;;;13.45;;
38085;SDS011;23896;50.678;10.924;2023-08-20T13:42:23;18.85;;;13.50;;
38085;SDS011;23896;50.678;10.924;2023-08-20T13:44:49;18.17;;;13.30;;
38085;SDS011;23896;50.678;10.924;2023-08-20T13:47:15;13.40;;;11.70;;
38085;SDS011;23896;50.678;10.924;2023-08-20T13:49:42;14.18;;;12.77;;
38085;SDS011;23896;50.678;10.924;2023-08-20T13:52:09;14.52;;;13.15;;
38085;SDS011;23896;50.678;10.924;2023-08-20T13:54:35;15.45;;;12.60;;
38085;SDS011;23896;50.678;10.924;2023-08-20T13:57:02;13.38;;;12.07;;
38085;SDS011;23896;50.678;10.924;2023-08-20T13:59:28;13.45;;;11.30;;
38085;SDS011;23896;50.678;10.924;2023-08-20T14:01:56;13.50;;;12.20;;
38085;SDS011;23896;50.678;10.924;2023-08-20T14:04:22;16.10;;;12.48;;
38085;SDS011;23896;50.678;10.924;2023-08-20T14:06:48;13.90;;;12.45;;
38085;SDS011;23896;50.678;10.924;2023-08-20T14:09:14;15.82;;;12.82;;
38085;SDS011;23896;50.678;10.924;2023-08-20T14:11:43;14.48;;;12.60;;
38085;SDS011;23896;50.678;10.924;2023-08-20T14:14:10;13.90;;;11.90;;
38085;SDS011;23896;50.678;10.924;2023-08-20T14:16:36;14.80;;;12.32;;
38085;SDS011;23896;50.678;10.924;2023-08-20T14:19:02;13.88;;;12.25;;
38085;SDS011;23896;50.678;10.924;2023-08-20T14:21:30;13.07;;;11.65;;
38085;SDS011;23896;50.678;10.924;2023-08-20T14:23:56;15.48;;;12.13;;
38085;SDS011;23896;50.678;10.924;2023-08-20T14:26:22;14.85;;;12.48;;